createdAt,value
2023-04-28T00:01:54.310Z,99184.75
2023-04-28T00:04:27.216Z,99180.67
2023-04-28T00:06:59.430Z,99184.41
2023-04-28T00:09:31.801Z,99179.12
2023-04-28T00:12:04.922Z,99183.67
2023-04-28T00:14:37.070Z,99170.69
2023-04-28T00:17:10.909Z,99170.69
2023-04-28T00:19:43.332Z,99171.55
2023-04-28T00:22:15.778Z,99172.39
2023-04-28T00:24:48.325Z,99173.22
2023-04-28T00:27:20.880Z,99165.17
2023-04-28T00:29:53.251Z,99165.41
2023-04-28T00:32:25.514Z,99171.42
2023-04-28T00:34:59.214Z,99159.30
2023-04-28T00:37:34.587Z,99141.89
2023-04-28T00:40:07.560Z,99157.25
2023-04-28T00:42:39.915Z,99171.42
2023-04-28T00:45:12.183Z,99165.29
2023-04-28T00:47:44.544Z,99160.27
2023-04-28T00:50:18.171Z,99162.06
2023-04-28T00:52:51.166Z,99157.52
2023-04-28T00:55:25.253Z,99160.27
2023-04-28T00:57:59.515Z,99162.91
2023-04-28T01:00:31.554Z,99152.70
2023-04-28T01:03:04.212Z,99152.70
2023-04-28T01:05:38.557Z,99158.22
2023-04-28T01:08:11.285Z,99149.59
2023-04-28T01:10:47.255Z,99156.66
2023-04-28T01:13:21.728Z,99139.28
2023-04-28T01:15:54.727Z,99140.48
2023-04-28T01:18:27.920Z,99140.48
2023-04-28T01:21:01.070Z,99161.97
2023-04-28T01:23:33.394Z,99161.97
2023-04-28T01:26:05.825Z,99157.51
2023-04-28T01:28:38.044Z,99157.51
2023-04-28T01:31:10.527Z,99144.06
2023-04-28T01:33:43.274Z,99150.20
2023-04-28T01:36:15.367Z,99157.63
2023-04-28T01:38:48.120Z,99158.95
2023-04-28T01:41:20.882Z,99158.95
2023-04-28T01:43:52.943Z,99167.61
2023-04-28T01:46:25.038Z,99164.85
2023-04-28T01:48:57.714Z,99163.77
2023-04-28T01:51:30.043Z,99174.06
2023-04-28T01:54:02.810Z,99175.77
2023-04-28T01:56:35.567Z,99178.14
2023-04-28T01:59:07.838Z,99178.30
2023-04-28T02:01:40.303Z,99174.06
2023-04-28T02:04:12.787Z,99172.39
2023-04-28T02:06:46.165Z,99168.20
2023-04-28T02:09:18.955Z,99142.39
2023-04-28T02:11:51.139Z,99159.42
2023-04-28T02:14:23.783Z,99166.64
2023-04-28T02:16:56.950Z,99162.80
2023-04-28T02:19:29.069Z,99153.20
2023-04-28T02:22:01.497Z,99160.16
2023-04-28T02:24:38.739Z,99158.95
2023-04-28T02:27:11.063Z,99156.08
2023-04-28T02:29:43.473Z,99165.17
2023-04-28T02:32:15.558Z,99141.16
2023-04-28T02:34:47.775Z,99147.87
2023-04-28T02:37:19.718Z,99146.31
2023-04-28T02:39:54.312Z,99146.31
2023-04-28T02:42:27.021Z,99161.90
2023-04-28T02:44:59.261Z,99152.30
2023-04-28T02:47:33.143Z,99168.89
2023-04-28T02:50:05.854Z,99149.31
2023-04-28T02:52:38.429Z,99176.44
2023-04-28T02:55:11.252Z,99177.05
2023-04-28T02:57:43.397Z,99145.11
2023-04-28T03:00:16.463Z,99175.56
2023-04-28T03:02:50.447Z,99173.27
2023-04-28T03:05:22.660Z,99173.27
2023-04-28T03:07:54.820Z,99187.92
2023-04-28T03:10:27.059Z,99198.14
2023-04-28T03:12:59.176Z,99181.06
2023-04-28T03:15:31.307Z,99177.78
2023-04-28T03:18:03.486Z,99177.78
2023-04-28T03:20:35.846Z,99181.03
2023-04-28T03:23:08.031Z,99179.66
2023-04-28T03:25:40.357Z,99169.81
2023-04-28T03:28:12.693Z,99178.33
2023-04-28T03:30:44.755Z,99178.11
2023-04-28T03:33:17.286Z,99175.22
2023-04-28T03:35:49.452Z,99187.11
2023-04-28T03:38:22.835Z,99197.42
2023-04-28T03:40:55.521Z,99192.98
2023-04-28T03:43:38.546Z,99201.77
2023-04-28T03:46:12.456Z,99199.24
2023-04-28T03:48:46.363Z,99201.61
2023-04-28T03:51:18.634Z,99199.82
2023-04-28T03:53:50.795Z,99204.75
2023-04-28T03:56:23.177Z,99196.16
2023-04-28T03:58:55.891Z,99196.16
2023-04-28T04:01:28.246Z,99206.50
2023-04-28T04:04:00.487Z,99210.64
2023-04-28T04:06:34.200Z,99208.75
2023-04-28T04:09:06.743Z,99215.78
2023-04-28T04:11:39.150Z,99195.62
2023-04-28T04:14:11.556Z,99204.86
2023-04-28T04:16:44.348Z,99215.67
2023-04-28T04:19:16.385Z,99213.58
2023-04-28T04:21:49.542Z,99210.42
2023-04-28T04:24:21.873Z,99210.98
2023-04-28T04:26:54.352Z,99224.66
2023-04-28T04:29:28.396Z,99219.67
2023-04-28T04:32:01.224Z,99219.16
2023-04-28T04:34:34.369Z,99222.23
2023-04-28T04:37:07.424Z,99220.86
2023-04-28T04:39:41.202Z,99218.08
2023-04-28T04:42:23.884Z,99216.57
2023-04-28T04:44:49.661Z,99214.08
2023-04-28T04:47:26.489Z,99226.81
2023-04-28T04:49:59.062Z,99221.21
2023-04-28T04:52:33.079Z,99230.16
2023-04-28T04:55:07.157Z,99230.42
2023-04-28T04:57:40.048Z,99236.97
2023-04-28T05:00:14.724Z,99232.09
2023-04-28T05:02:47.253Z,99234.62
2023-04-28T05:05:22.834Z,99246.20
2023-04-28T05:08:08.671Z,99236.63
2023-04-28T05:10:43.227Z,99233.33
2023-04-28T05:13:15.921Z,99235.11
2023-04-28T05:15:48.385Z,99242.66
2023-04-28T05:18:28.535Z,99248.06
2023-04-28T05:21:01.872Z,99245.41
2023-04-28T05:23:33.913Z,99248.65
2023-04-28T05:26:06.618Z,99261.77
2023-04-28T05:28:41.766Z,99251.00
2023-04-28T05:31:14.087Z,99257.30
2023-04-28T05:33:46.621Z,99260.83
2023-04-28T05:36:19.560Z,99258.29
2023-04-28T05:38:52.126Z,99267.70
2023-04-28T05:41:26.136Z,99270.50
2023-04-28T05:43:59.534Z,99266.59
2023-04-28T05:46:32.485Z,99259.60
2023-04-28T05:49:04.915Z,99264.06
2023-04-28T05:51:41.561Z,99259.33
2023-04-28T05:54:14.635Z,99258.34
2023-04-28T05:56:48.279Z,99268.00
2023-04-28T05:59:20.466Z,99266.03
2023-04-28T06:01:53.427Z,99265.61
2023-04-28T06:04:26.651Z,99256.52
2023-04-28T06:06:59.191Z,99267.13
2023-04-28T06:09:32.244Z,99272.17
2023-04-28T06:12:05.523Z,99266.02
2023-04-28T06:14:38.806Z,99281.12
2023-04-28T06:17:11.044Z,99268.53
2023-04-28T06:19:43.514Z,99270.20
2023-04-28T06:22:15.853Z,99269.94
2023-04-28T06:24:48.126Z,99258.47
2023-04-28T06:27:22.201Z,99258.89
2023-04-28T06:29:54.878Z,99255.66
2023-04-28T06:32:26.872Z,99256.41
2023-04-28T06:34:59.832Z,99253.93
2023-04-28T06:37:33.758Z,99258.85
2023-04-28T06:40:07.148Z,99254.75
2023-04-28T06:42:39.876Z,99243.20
2023-04-28T06:45:17.801Z,99256.84
2023-04-28T06:47:52.704Z,99252.73
2023-04-28T06:50:25.544Z,99249.38
2023-04-28T06:52:59.496Z,99247.02
2023-04-28T06:55:34.121Z,99242.12
2023-04-28T06:58:06.628Z,99251.29
2023-04-28T07:00:39.055Z,99253.35
2023-04-28T07:03:11.618Z,99253.08
2023-04-28T07:05:43.872Z,99245.03
2023-04-28T07:08:17.717Z,99244.09
2023-04-28T07:10:50.179Z,99244.18
2023-04-28T07:13:22.173Z,99249.09
2023-04-28T07:15:54.342Z,99243.98
2023-04-28T07:18:26.726Z,99257.69
2023-04-28T07:20:59.366Z,99245.03
2023-04-28T07:23:31.996Z,99257.72
2023-04-28T07:26:04.277Z,99244.69
2023-04-28T07:28:37.264Z,99255.90
2023-04-28T07:31:09.775Z,99260.70
2023-04-28T07:33:42.266Z,99261.52
2023-04-28T07:36:14.722Z,99255.91
2023-04-28T07:38:47.100Z,99271.77
2023-04-28T07:41:19.784Z,99256.38
2023-04-28T07:43:51.879Z,99263.15
2023-04-28T07:46:24.308Z,99262.86
2023-04-28T07:48:58.672Z,99261.05
2023-04-28T07:51:30.958Z,99275.03
2023-04-28T07:54:03.305Z,99271.45
2023-04-28T07:56:35.749Z,99269.33
2023-04-28T07:59:07.894Z,99267.73
2023-04-28T08:01:40.299Z,99269.35
2023-04-28T08:04:13.160Z,99271.20
2023-04-28T08:06:45.907Z,99261.86
2023-04-28T08:09:18.332Z,99269.56
2023-04-28T08:11:51.599Z,99259.53
2023-04-28T08:14:23.711Z,99258.14
2023-04-28T08:16:56.071Z,99258.65
2023-04-28T08:19:28.612Z,99252.97
2023-04-28T08:22:02.617Z,99256.44
2023-04-28T08:24:34.993Z,99262.36
2023-04-28T08:27:07.449Z,99266.04
2023-04-28T08:29:40.567Z,99269.10
2023-04-28T08:32:12.699Z,99259.73
2023-04-28T08:34:44.967Z,99271.91
2023-04-28T08:37:17.238Z,99273.69
2023-04-28T08:39:49.311Z,99256.69
2023-04-28T08:42:21.583Z,99268.66
2023-04-28T08:44:56.471Z,99273.56
2023-04-28T08:47:40.848Z,99280.27
2023-04-28T08:50:14.358Z,99279.22
2023-04-28T08:52:48.531Z,99290.50
2023-04-28T08:55:21.474Z,99284.98
2023-04-28T08:57:54.963Z,99285.37
2023-04-28T09:00:27.426Z,99288.62
2023-04-28T09:02:59.581Z,99285.02
2023-04-28T09:05:32.339Z,99286.73
2023-04-28T09:08:04.874Z,99293.88
2023-04-28T09:10:37.207Z,99289.41
2023-04-28T09:13:09.861Z,99295.57
2023-04-28T09:15:42.159Z,99293.77
2023-04-28T09:18:16.015Z,99291.64
2023-04-28T09:20:48.340Z,99288.35
2023-04-28T09:23:22.698Z,99284.21
2023-04-28T09:26:03.739Z,99279.87
2023-04-28T09:28:37.146Z,99276.92
2023-04-28T09:31:28.450Z,99272.56
2023-04-28T09:34:01.820Z,99269.09
2023-04-28T09:36:34.068Z,99275.93
2023-04-28T09:39:06.806Z,99270.11
2023-04-28T09:41:44.424Z,99274.94
2023-04-28T09:44:19.595Z,99273.12
2023-04-28T09:46:52.049Z,99268.02
2023-04-28T09:49:24.324Z,99266.40
2023-04-28T09:51:57.945Z,99265.30
2023-04-28T09:54:32.581Z,99263.97
2023-04-28T09:57:05.230Z,99276.08
2023-04-28T09:59:38.558Z,99277.98
2023-04-28T10:02:28.789Z,99281.02
2023-04-28T10:04:47.155Z,99277.36
2023-04-28T10:07:21.262Z,99274.89
2023-04-28T10:09:54.024Z,99270.17
2023-04-28T10:12:27.125Z,99281.73
2023-04-28T10:15:01.095Z,99281.65
2023-04-28T10:17:36.287Z,99281.66
2023-04-28T10:20:10.962Z,99276.53
2023-04-28T10:22:43.665Z,99284.66
2023-04-28T10:25:30.058Z,99295.67
2023-04-28T10:28:05.303Z,99285.05
2023-04-28T10:30:38.221Z,99285.22
2023-04-28T10:33:16.351Z,99284.37
2023-04-28T10:35:48.613Z,99289.60
2023-04-28T10:38:23.082Z,99294.27
2023-04-28T10:40:55.690Z,99288.42
2023-04-28T10:43:32.164Z,99295.77
2023-04-28T10:46:06.866Z,99298.34
2023-04-28T10:48:51.375Z,99308.36
2023-04-28T10:51:24.536Z,99309.23
2023-04-28T10:54:02.968Z,99319.56
2023-04-28T10:56:35.352Z,99315.66
2023-04-28T10:59:26.791Z,99319.97
2023-04-28T11:02:02.240Z,99317.20
2023-04-28T11:04:38.148Z,99316.90
2023-04-28T11:07:14.887Z,99309.42
2023-04-28T11:09:50.021Z,99319.14
2023-04-28T11:12:22.248Z,99319.14
2023-04-28T11:14:54.840Z,99317.34
2023-04-28T11:17:36.607Z,99316.47
2023-04-28T11:20:11.273Z,99319.22
2023-04-28T11:22:43.795Z,99317.39
2023-04-28T11:25:15.879Z,99318.88
2023-04-28T11:27:48.021Z,99319.53
2023-04-28T11:30:24.368Z,99319.53
2023-04-28T11:32:57.960Z,99317.48
2023-04-28T11:35:33.358Z,99320.13
2023-04-28T11:38:05.723Z,99322.76
2023-04-28T11:40:37.790Z,99325.39
2023-04-28T11:43:10.055Z,99324.28
2023-04-28T11:45:45.053Z,99320.59
2023-04-28T11:48:23.798Z,99321.02
2023-04-28T11:50:56.142Z,99320.93
2023-04-28T11:53:47.763Z,99319.91
2023-04-28T11:56:20.587Z,99319.34
2023-04-28T11:59:06.620Z,99315.34
2023-04-28T12:01:49.857Z,99311.04
2023-04-28T12:04:30.323Z,99305.45
2023-04-28T12:07:13.568Z,99310.63
2023-04-28T12:09:48.408Z,99308.97
2023-04-28T12:12:49.107Z,99309.36
2023-04-28T12:15:09.726Z,99315.08
2023-04-28T12:17:44.197Z,99317.92
2023-04-28T12:20:38.475Z,99312.50
2023-04-28T12:23:11.267Z,99298.20
2023-04-28T12:25:48.437Z,99298.20
2023-04-28T12:28:21.013Z,99315.47
2023-04-28T12:30:54.726Z,99315.17
2023-04-28T12:33:30.437Z,99310.91
2023-04-28T12:36:03.182Z,99318.41
2023-04-28T12:38:35.609Z,99318.78
2023-04-28T12:41:08.065Z,99324.72
2023-04-28T12:43:41.140Z,99309.27
2023-04-28T12:46:15.035Z,99318.37
2023-04-28T12:48:47.457Z,99318.37
2023-04-28T12:51:20.566Z,99313.27
2023-04-28T12:53:52.787Z,99316.41
2023-04-28T12:56:25.352Z,99323.45
2023-04-28T12:58:57.849Z,99321.95
2023-04-28T13:01:30.880Z,99319.78
2023-04-28T13:04:03.959Z,99317.13
2023-04-28T13:06:36.943Z,99322.43
2023-04-28T13:09:09.801Z,99313.88
2023-04-28T13:11:43.389Z,99315.42
2023-04-28T13:14:15.855Z,99323.25
2023-04-28T13:16:48.352Z,99323.13
2023-04-28T13:19:20.496Z,99320.72
2023-04-28T13:21:52.814Z,99313.80
2023-04-28T13:24:25.151Z,99318.00
2023-04-28T13:26:58.668Z,99325.83
2023-04-28T13:29:30.763Z,99334.75
2023-04-28T13:32:02.908Z,99333.90
2023-04-28T13:34:35.513Z,99348.40
2023-04-28T13:37:07.962Z,99349.26
2023-04-28T13:39:40.576Z,99359.19
2023-04-28T13:42:13.329Z,99329.20
2023-04-28T13:44:47.103Z,99361.19
2023-04-28T13:47:19.502Z,99360.37
2023-04-28T13:49:51.787Z,99364.86
2023-04-28T13:52:23.767Z,99362.69
2023-04-28T13:54:55.762Z,99361.72
2023-04-28T13:57:27.895Z,99366.77
2023-04-28T14:00:00.022Z,99367.72
2023-04-28T14:02:34.007Z,99384.54
2023-04-28T14:05:06.780Z,99378.63
2023-04-28T14:07:39.008Z,99386.59
2023-04-28T14:10:12.094Z,99386.59
2023-04-28T14:12:44.251Z,99389.22
2023-04-28T14:15:18.142Z,99389.65
2023-04-28T14:17:50.455Z,99389.65
2023-04-28T14:20:23.219Z,99404.20
2023-04-28T14:22:55.444Z,99407.06
2023-04-28T14:25:27.592Z,99414.80
2023-04-28T14:28:00.160Z,99415.05
2023-04-28T14:30:32.458Z,99409.02
2023-04-28T14:33:04.699Z,99411.66
2023-04-28T14:35:36.780Z,99411.16
2023-04-28T14:38:09.269Z,99409.59
2023-04-28T14:40:43.045Z,99408.13
2023-04-28T14:43:15.841Z,99412.15
2023-04-28T14:45:49.268Z,99417.83
2023-04-28T14:48:21.608Z,99409.72
2023-04-28T14:50:53.967Z,99419.21
2023-04-28T14:53:26.576Z,99424.39
2023-04-28T14:58:34.369Z,99423.37
2023-04-28T15:01:07.008Z,99423.79
2023-04-28T15:03:39.511Z,99416.02
2023-04-28T15:06:12.330Z,99424.45
2023-04-28T15:08:44.742Z,99429.87
2023-04-28T15:11:16.992Z,99427.13
2023-04-28T15:13:49.133Z,99426.17
2023-04-28T15:16:21.961Z,99426.41
2023-04-28T15:18:54.065Z,99421.64
2023-04-28T15:21:26.431Z,99424.09
2023-04-28T15:23:59.814Z,99425.27
2023-04-28T15:26:32.193Z,99433.16
2023-04-28T15:29:04.773Z,99439.56
2023-04-28T15:31:37.745Z,99445.55
2023-04-28T15:34:10.664Z,99445.44
2023-04-28T15:36:44.233Z,99465.79
2023-04-28T15:39:16.662Z,99454.30
2023-04-28T15:41:48.990Z,99455.88
2023-04-28T15:44:21.186Z,99457.12
2023-04-28T15:46:53.361Z,99462.16
2023-04-28T15:49:26.035Z,99453.63
2023-04-28T15:51:58.584Z,99454.12
2023-04-28T15:54:31.192Z,99456.31
2023-04-28T15:57:03.620Z,99455.69
2023-04-28T15:59:35.984Z,99451.47
2023-04-28T16:02:09.069Z,99449.66
2023-04-28T16:04:41.568Z,99448.73
2023-04-28T16:07:14.259Z,99448.73
2023-04-28T16:09:46.670Z,99450.42
2023-04-28T16:12:18.870Z,99456.07
2023-04-28T16:14:51.458Z,99465.02
2023-04-28T16:17:24.231Z,99466.48
2023-04-28T16:19:57.279Z,99465.08
2023-04-28T16:22:30.065Z,99469.05
2023-04-28T16:25:04.010Z,99464.92
2023-04-28T16:27:37.614Z,99468.16
2023-04-28T16:30:10.600Z,99478.77
2023-04-28T16:32:43.000Z,99470.14
2023-04-28T16:35:15.684Z,99474.64
2023-04-28T16:37:47.768Z,99479.17
2023-04-28T16:40:20.339Z,99482.48
2023-04-28T16:42:54.227Z,99482.03
2023-04-28T16:45:26.240Z,99480.04
2023-04-28T16:47:58.729Z,99492.60
2023-04-28T16:50:31.869Z,99490.45
2023-04-28T16:53:04.119Z,99484.55
2023-04-28T16:55:39.689Z,99487.19
2023-04-28T16:58:12.843Z,99494.77
2023-04-28T17:00:45.617Z,99493.82
2023-04-28T17:03:18.498Z,99484.05
2023-04-28T17:05:51.185Z,99493.07
2023-04-28T17:08:23.039Z,99476.56
2023-04-28T17:10:55.554Z,99481.81
2023-04-28T17:13:27.949Z,99498.63
2023-04-28T17:16:00.613Z,99497.21
2023-04-28T17:18:33.783Z,99509.61
2023-04-28T17:21:07.204Z,99505.66
2023-04-28T17:23:39.599Z,99508.20
2023-04-28T17:26:12.190Z,99511.38
2023-04-28T17:28:44.330Z,99504.87
2023-04-28T17:31:16.795Z,99506.37
2023-04-28T17:33:50.634Z,99514.77
2023-04-28T17:36:25.572Z,99509.80
2023-04-28T17:38:58.157Z,99510.83
2023-04-28T17:41:30.395Z,99522.16
2023-04-28T17:44:02.733Z,99520.56
2023-04-28T17:46:34.872Z,99529.30
2023-04-28T17:49:06.925Z,99523.95
2023-04-28T17:51:39.154Z,99522.93
2023-04-28T17:54:11.424Z,99517.85
2023-04-28T17:56:43.652Z,99518.96
2023-04-28T17:59:17.084Z,99536.48
2023-04-28T18:01:49.406Z,99538.62
2023-04-28T18:04:22.091Z,99532.71
2023-04-28T18:06:54.291Z,99540.34
2023-04-28T18:09:27.321Z,99551.12
2023-04-28T18:11:59.720Z,99547.80
2023-04-28T18:14:32.173Z,99545.38
2023-04-28T18:17:04.278Z,99542.22
2023-04-28T18:19:36.779Z,99541.03
2023-04-28T18:22:08.763Z,99539.79
2023-04-28T18:24:40.982Z,99542.73
2023-04-28T18:27:13.443Z,99554.25
2023-04-28T18:29:45.613Z,99542.93
2023-04-28T18:32:17.880Z,99543.33
2023-04-28T18:34:50.226Z,99539.03
2023-04-28T18:37:23.913Z,99540.63
2023-04-28T18:39:58.704Z,99536.61
2023-04-28T18:42:33.380Z,99545.77
2023-04-28T18:45:06.563Z,99538.14
2023-04-28T18:47:38.799Z,99541.70
2023-04-28T18:50:11.584Z,99546.95
2023-04-28T18:52:43.667Z,99548.87
2023-04-28T18:55:17.241Z,99540.17
2023-04-28T18:57:53.072Z,99542.52
2023-04-28T19:00:27.351Z,99530.15
2023-04-28T19:03:00.762Z,99527.95
2023-04-28T19:05:34.094Z,99537.76
2023-04-28T19:08:10.817Z,99533.55
2023-04-28T19:10:41.624Z,99542.75
2023-04-28T19:13:14.451Z,99542.38
2023-04-28T19:15:47.025Z,99551.37
2023-04-28T19:18:19.448Z,99552.72
2023-04-28T19:20:52.461Z,99553.01
2023-04-28T19:23:25.466Z,99557.64
2023-04-28T19:25:59.397Z,99559.33
2023-04-28T19:28:31.610Z,99560.25
2023-04-28T19:31:04.494Z,99563.55
2023-04-28T19:33:36.777Z,99546.09
2023-04-28T19:36:10.046Z,99548.99
2023-04-28T19:38:42.344Z,99571.12
2023-04-28T19:41:14.995Z,99569.03
2023-04-28T19:43:47.118Z,99582.02
2023-04-28T19:46:19.616Z,99580.17
2023-04-28T19:48:52.925Z,99574.73
2023-04-28T19:51:24.957Z,99565.58
2023-04-28T19:53:57.095Z,99558.73
2023-04-28T19:56:29.262Z,99552.95
2023-04-28T19:59:01.264Z,99544.72
2023-04-28T20:01:33.658Z,99555.39
2023-04-28T20:04:05.930Z,99541.13
2023-04-28T20:06:38.447Z,99546.63
2023-04-28T20:09:11.027Z,99549.24
2023-04-28T20:11:43.334Z,99547.86
2023-04-28T20:14:15.759Z,99541.64
2023-04-28T20:16:47.771Z,99541.27
2023-04-28T20:19:19.946Z,99553.64
2023-04-28T20:21:52.566Z,99552.84
2023-04-28T20:24:24.867Z,99543.32
2023-04-28T20:26:58.467Z,99554.57
2023-04-28T20:29:33.934Z,99546.23
2023-04-28T20:32:06.513Z,99549.10
2023-04-28T20:34:40.024Z,99542.06
2023-04-28T20:37:13.526Z,99541.20
2023-04-28T20:39:45.572Z,99549.04
2023-04-28T20:42:17.952Z,99541.00
2023-04-28T20:44:50.955Z,99545.86
2023-04-28T20:47:23.102Z,99552.13
2023-04-28T20:49:55.109Z,99551.81
2023-04-28T20:52:28.971Z,99551.97
2023-04-28T20:55:01.168Z,99558.89
2023-04-28T20:57:33.638Z,99565.48
2023-04-28T21:00:07.682Z,99563.25
2023-04-28T21:02:40.428Z,99566.25
2023-04-28T21:05:12.789Z,99556.21
2023-04-28T21:07:45.478Z,99565.09
2023-04-28T21:10:17.556Z,99555.28
2023-04-28T21:12:50.989Z,99564.55
2023-04-28T21:15:23.032Z,99572.97
2023-04-28T21:17:55.113Z,99569.91
2023-04-28T21:20:27.226Z,99561.31
2023-04-28T21:22:59.286Z,99556.21
2023-04-28T21:25:31.727Z,99539.27
2023-04-28T21:28:03.778Z,99552.00
2023-04-28T21:30:35.857Z,99546.78
2023-04-28T21:33:08.100Z,99558.13
2023-04-28T21:35:40.122Z,99568.09
2023-04-28T21:38:12.480Z,99561.15
2023-04-28T21:40:44.464Z,99561.31
2023-04-28T21:43:16.926Z,99551.14
2023-04-28T21:45:49.033Z,99545.79
2023-04-28T21:48:21.493Z,99547.77
2023-04-28T21:50:53.744Z,99543.81
2023-04-28T21:53:26.003Z,99542.73
2023-04-28T21:55:58.073Z,99552.26
2023-04-28T21:58:29.998Z,99559.91
2023-04-28T22:01:02.851Z,99554.39
2023-04-28T22:03:36.319Z,99554.23
2023-04-28T22:06:09.133Z,99560.57
2023-04-28T22:08:41.751Z,99560.57
2023-04-28T22:11:15.882Z,99558.89
2023-04-28T22:13:47.980Z,99559.87
2023-04-28T22:16:20.633Z,99554.75
2023-04-28T22:18:52.965Z,99535.95
2023-04-28T22:21:25.659Z,99529.80
2023-04-28T22:23:58.053Z,99524.23
2023-04-28T22:26:34.584Z,99514.30
2023-04-28T22:29:07.100Z,99514.20
2023-04-28T22:31:39.448Z,99525.54
2023-04-28T22:34:11.845Z,99543.17
2023-04-28T22:36:45.231Z,99537.44
2023-04-28T22:39:17.237Z,99540.45
2023-04-28T22:41:49.470Z,99537.84
2023-04-28T22:44:21.452Z,99537.56
2023-04-28T22:46:53.644Z,99519.36
2023-04-28T22:49:27.568Z,99527.52
2023-04-28T22:52:00.067Z,99517.73
2023-04-28T22:54:32.250Z,99517.20
2023-04-28T22:57:04.240Z,99523.22
2023-04-28T22:59:36.219Z,99517.87
2023-04-28T23:02:10.123Z,99532.27
2023-04-28T23:04:42.751Z,99531.30
2023-04-28T23:07:15.102Z,99535.53
2023-04-28T23:09:47.654Z,99536.58
2023-04-28T23:12:19.822Z,99535.17
2023-04-28T23:14:51.982Z,99528.87
2023-04-28T23:17:24.138Z,99516.16
2023-04-28T23:19:56.455Z,99530.71
2023-04-28T23:22:28.543Z,99530.65
2023-04-28T23:25:00.901Z,99527.29
2023-04-28T23:27:34.271Z,99521.25
2023-04-28T23:30:06.927Z,99538.41
2023-04-28T23:32:39.239Z,99545.01
2023-04-28T23:35:11.547Z,99555.75
2023-04-28T23:37:43.664Z,99565.84
2023-04-28T23:40:15.979Z,99563.73
2023-04-28T23:42:48.484Z,99561.95
2023-04-28T23:45:20.955Z,99555.11
2023-04-28T23:47:53.585Z,99563.78
2023-04-28T23:50:27.494Z,99566.02
2023-04-28T23:52:59.503Z,99558.63
2023-04-28T23:55:31.771Z,99551.67
2023-04-28T23:58:03.867Z,99557.09
